METAR Data
IDs: Format: Raw Decoded Include TAF

Data at: 0007 UTC 30 May 2020

METAR for:KDSM (Des Moines Intl, IA, US)
Text:KDSM 292354Z 35010KT 10SM FEW250 22/08 A3012 RMK AO2 SLP196 T02220078 10222 20200 55002
Temperature: 22.2°C ( 72°F)
Dewpoint: 7.8°C ( 46°F) [RH = 40%]
Pressure (altimeter):30.12 inches Hg (1020.1 mb) [Sea level pressure: 1019.6 mb]
Winds:from the N (350 degrees) at 12 MPH (10 knots; 5.1 m/s)
Visibility:10 or more sm (16+ km)
Ceiling:at least 12,000 feet AGL
Clouds: few clouds at 25000 feet AGL